Van Vleck, Texas
Current Conditions -  °F | °C
As of 8:15 PM on Friday 19 Dec 2014 (Local Time) from KARM Reporting Station
Overcast Overcast  
Wind Chill: 55°   Ceiling: 700
Heat Index: 55°   Visibility: 10mi
Dew Point: 54°   Wind: 15mph
Humidity: 96%   Direction: 350°N
Pressure: 30.11"   Gusts: NA
Location:  29.02°N, 95.89°W
Report Text: KARM 200215Z AUTO 35013KT 10SM BKN007 OVC011 13/12 A3011 RMK AO2 T01270120
Loading
Personal Weather Stations






























Interactive Weather Map New forecast layout! Learn more

10-Day Weather Forecast

Advertisements
Track Severe Weather on mobile